createdAt,value
2023-03-15T00:01:39.296Z,0.40
2023-03-15T00:04:07.828Z,0.43
2023-03-15T00:06:36.593Z,0.30
2023-03-15T00:09:06.687Z,0.30
2023-03-15T00:11:35.152Z,0.40
2023-03-15T00:14:03.824Z,0.50
2023-03-15T00:16:33.058Z,0.40
2023-03-15T00:19:01.893Z,0.60
2023-03-15T00:21:30.386Z,0.57
2023-03-15T00:23:58.974Z,0.60
2023-03-15T00:26:28.923Z,0.40
2023-03-15T00:28:57.234Z,0.60
2023-03-15T00:31:26.940Z,0.73
2023-03-15T00:33:55.459Z,0.53
2023-03-15T00:36:26.818Z,2.27
2023-03-15T00:38:57.171Z,2.60
2023-03-15T00:41:26.020Z,1.30
2023-03-15T00:43:55.860Z,0.50
2023-03-15T00:46:24.366Z,0.77
2023-03-15T00:48:53.299Z,2.20
2023-03-15T00:51:23.564Z,1.70
2023-03-15T00:53:53.598Z,0.80
2023-03-15T00:56:24.336Z,0.80
2023-03-15T00:58:54.102Z,0.53
2023-03-15T01:01:26.176Z,1.10
2023-03-15T01:03:55.387Z,0.90
2023-03-15T01:06:29.110Z,0.50
2023-03-15T01:08:57.980Z,1.83
2023-03-15T01:11:29.047Z,0.60
2023-03-15T01:14:00.259Z,0.40
2023-03-15T01:16:30.252Z,0.40
2023-03-15T01:18:58.735Z,0.50
2023-03-15T01:21:27.154Z,0.30
2023-03-15T01:23:55.918Z,0.30
2023-03-15T01:26:24.974Z,0.20
2023-03-15T01:28:53.561Z,0.40
2023-03-15T01:31:24.678Z,1.13
2023-03-15T01:33:54.771Z,0.70
2023-03-15T01:36:24.413Z,0.50
2023-03-15T01:38:54.004Z,0.60
2023-03-15T01:41:27.618Z,0.53
2023-03-15T01:43:56.301Z,0.30
2023-03-15T01:46:27.649Z,0.70
2023-03-15T01:49:08.511Z,2.03
2023-03-15T01:51:47.516Z,0.57
2023-03-15T01:54:20.616Z,0.73
2023-03-15T01:56:56.191Z,0.90
2023-03-15T01:59:30.864Z,0.53
2023-03-15T02:02:01.343Z,0.40
2023-03-15T02:04:35.691Z,0.33
2023-03-15T02:07:06.598Z,0.50
2023-03-15T02:09:43.024Z,0.40
2023-03-15T02:12:12.621Z,0.40
2023-03-15T02:14:44.204Z,0.67
2023-03-15T02:17:17.045Z,0.30
2023-03-15T02:19:57.977Z,0.70
2023-03-15T02:22:33.788Z,0.60
2023-03-15T02:25:09.722Z,0.67
2023-03-15T02:27:41.025Z,0.63
2023-03-15T02:30:11.580Z,0.50
2023-03-15T02:32:40.322Z,0.40
2023-03-15T02:35:09.465Z,0.40
2023-03-15T02:37:37.879Z,0.63
2023-03-15T02:40:18.200Z,0.30
2023-03-15T02:42:49.926Z,0.30
2023-03-15T02:45:19.866Z,0.60
2023-03-15T02:47:50.080Z,0.53
2023-03-15T02:50:18.955Z,0.60
2023-03-15T02:52:47.474Z,0.70
2023-03-15T02:55:16.998Z,1.70
2023-03-15T02:57:45.430Z,0.70
2023-03-15T03:00:16.233Z,0.50
2023-03-15T03:02:47.845Z,0.40
2023-03-15T03:05:17.861Z,0.70
2023-03-15T03:07:47.068Z,0.73
2023-03-15T03:10:19.068Z,0.50
2023-03-15T03:13:05.239Z,0.50
2023-03-15T03:15:38.546Z,0.70
2023-03-15T03:18:07.072Z,0.80
2023-03-15T03:20:35.480Z,0.67
2023-03-15T03:23:06.251Z,0.80
2023-03-15T03:25:36.809Z,0.83
2023-03-15T03:28:05.394Z,0.80
2023-03-15T03:30:36.742Z,0.70
2023-03-15T03:33:06.798Z,0.50
2023-03-15T03:35:35.194Z,0.50
2023-03-15T03:38:03.609Z,0.60
2023-03-15T03:40:37.320Z,0.37
2023-03-15T03:43:07.533Z,0.50
2023-03-15T03:45:36.886Z,0.70
2023-03-15T03:48:07.893Z,0.83
2023-03-15T03:50:36.584Z,0.70
2023-03-15T03:53:05.038Z,0.53
2023-03-15T03:55:36.145Z,0.50
2023-03-15T03:58:04.583Z,0.50
2023-03-15T04:00:41.900Z,0.97
2023-03-15T04:03:13.120Z,0.50
2023-03-15T04:05:46.528Z,0.47
2023-03-15T04:08:19.139Z,0.40
2023-03-15T04:10:50.700Z,0.73
2023-03-15T04:13:19.186Z,0.63
2023-03-15T04:15:47.887Z,0.50
2023-03-15T04:18:19.693Z,0.90
2023-03-15T04:20:49.235Z,0.97
2023-03-15T04:23:20.353Z,0.60
2023-03-15T04:26:07.672Z,1.03
2023-03-15T04:29:00.630Z,0.43
2023-03-15T04:31:37.934Z,0.83
2023-03-15T04:34:29.581Z,0.77
2023-03-15T04:37:32.316Z,0.50
2023-03-15T04:40:19.395Z,0.60
2023-03-15T04:42:47.833Z,0.63
2023-03-15T04:45:34.224Z,0.70
2023-03-15T04:48:03.553Z,0.80
2023-03-15T04:50:40.960Z,0.83
2023-03-15T04:53:21.505Z,0.70
2023-03-15T04:56:19.166Z,0.50
2023-03-15T04:59:07.124Z,0.60
2023-03-15T05:01:40.497Z,0.57
2023-03-15T05:04:39.056Z,0.60
2023-03-15T05:07:20.424Z,0.60
2023-03-15T05:09:59.923Z,0.80
2023-03-15T05:12:38.666Z,0.60
2023-03-15T05:15:22.815Z,0.83
2023-03-15T05:17:58.928Z,0.57
2023-03-15T05:20:42.158Z,0.97
2023-03-15T05:23:17.928Z,0.57
2023-03-15T05:26:04.955Z,0.53
2023-03-15T05:29:03.814Z,0.70
2023-03-15T05:31:55.593Z,0.50
2023-03-15T05:34:24.673Z,1.37
2023-03-15T05:37:13.633Z,0.50
2023-03-15T05:40:18.785Z,0.70
2023-03-15T05:42:58.225Z,0.90
2023-03-15T05:45:36.793Z,0.60
2023-03-15T05:48:40.277Z,0.67
2023-03-15T05:51:30.791Z,1.47
2023-03-15T05:54:25.388Z,0.80
2023-03-15T05:57:18.076Z,0.70
2023-03-15T06:00:07.216Z,0.50
2023-03-15T06:02:45.676Z,0.63
2023-03-15T06:05:34.425Z,0.30
2023-03-15T06:08:05.585Z,0.50
2023-03-15T06:10:36.111Z,0.50
2023-03-15T06:13:10.019Z,0.80
2023-03-15T06:15:39.347Z,0.63
2023-03-15T06:18:09.592Z,1.07
2023-03-15T06:20:38.742Z,0.50
2023-03-15T06:23:11.886Z,0.63
2023-03-15T06:25:45.799Z,0.90
2023-03-15T06:28:16.576Z,0.50
2023-03-15T06:30:51.616Z,0.50
2023-03-15T06:33:26.256Z,0.60
2023-03-15T06:35:54.710Z,1.37
2023-03-15T06:38:23.012Z,0.63
2023-03-15T06:40:51.408Z,1.03
2023-03-15T06:43:21.160Z,0.60
2023-03-15T06:45:50.081Z,0.83
2023-03-15T06:48:18.741Z,0.80
2023-03-15T06:50:47.977Z,0.80
2023-03-15T06:53:17.908Z,0.80
2023-03-15T06:55:47.147Z,0.40
2023-03-15T06:58:16.524Z,0.87
2023-03-15T07:00:46.280Z,0.70
2023-03-15T07:03:14.636Z,0.90
2023-03-15T07:05:43.123Z,1.13
2023-03-15T07:08:11.527Z,0.50
2023-03-15T07:10:39.961Z,0.80
2023-03-15T07:13:09.460Z,0.87
2023-03-15T07:15:38.562Z,0.60
2023-03-15T07:18:08.396Z,0.90
2023-03-15T07:20:37.816Z,0.90
2023-03-15T07:23:06.761Z,0.50
2023-03-15T07:25:48.362Z,0.60
2023-03-15T07:28:23.259Z,1.60
2023-03-15T07:30:55.928Z,0.73
2023-03-15T07:33:26.968Z,0.80
2023-03-15T07:35:57.141Z,0.70
2023-03-15T07:38:28.960Z,0.80
2023-03-15T07:40:58.475Z,0.60
2023-03-15T07:43:26.843Z,0.70
2023-03-15T07:46:08.237Z,0.60
2023-03-15T07:48:38.289Z,0.67
2023-03-15T07:51:09.565Z,0.70
2023-03-15T07:53:38.316Z,0.80
2023-03-15T07:56:07.205Z,0.80
2023-03-15T07:58:35.651Z,0.60
2023-03-15T08:01:05.708Z,1.20
2023-03-15T08:03:34.214Z,0.60
2023-03-15T08:06:04.167Z,0.60
2023-03-15T08:08:32.579Z,0.53
2023-03-15T08:11:01.121Z,0.60
2023-03-15T08:13:29.734Z,0.80
2023-03-15T08:15:58.310Z,0.60
2023-03-15T08:18:31.491Z,0.50
2023-03-15T08:21:01.303Z,0.50
2023-03-15T08:23:31.383Z,0.50
2023-03-15T08:25:59.859Z,0.70
2023-03-15T08:28:28.207Z,0.60
2023-03-15T08:30:56.606Z,0.60
2023-03-15T08:33:25.065Z,1.00
2023-03-15T08:35:54.673Z,1.23
2023-03-15T08:38:23.299Z,0.47
2023-03-15T08:40:57.324Z,1.10
2023-03-15T08:43:26.216Z,0.60
2023-03-15T08:46:01.027Z,0.90
2023-03-15T08:48:31.667Z,1.13
2023-03-15T08:51:04.298Z,1.07
2023-03-15T08:53:33.281Z,1.30
2023-03-15T08:56:04.218Z,1.00
2023-03-15T08:58:32.811Z,0.70
2023-03-15T09:01:01.099Z,0.60
2023-03-15T09:03:29.648Z,0.80
2023-03-15T09:05:58.775Z,1.20
2023-03-15T09:08:28.042Z,0.70
2023-03-15T09:10:57.155Z,0.53
2023-03-15T09:13:27.518Z,0.80
2023-03-15T09:15:57.320Z,0.80
2023-03-15T09:18:26.103Z,1.33
2023-03-15T09:20:55.021Z,0.80
2023-03-15T09:23:24.181Z,0.93
2023-03-15T09:25:52.738Z,0.80
2023-03-15T09:28:21.209Z,1.00
2023-03-15T09:30:50.966Z,0.80
2023-03-15T09:33:19.328Z,1.00
2023-03-15T09:35:47.827Z,0.70
2023-03-15T09:38:16.298Z,0.73
2023-03-15T09:40:46.355Z,0.83
2023-03-15T09:43:44.937Z,0.80
2023-03-15T09:46:27.944Z,0.97
2023-03-15T09:49:01.322Z,0.80
2023-03-15T09:51:39.823Z,0.80
2023-03-15T09:54:14.109Z,0.80
2023-03-15T09:56:47.283Z,0.60
2023-03-15T09:59:22.734Z,0.90
2023-03-15T10:01:56.404Z,0.70
2023-03-15T10:04:29.523Z,0.70
2023-03-15T10:07:00.037Z,0.50
2023-03-15T10:09:33.350Z,0.50
2023-03-15T10:12:05.876Z,0.80
2023-03-15T10:14:50.064Z,0.60
2023-03-15T10:17:25.913Z,0.70
2023-03-15T10:20:01.411Z,0.80
2023-03-15T10:22:35.593Z,0.70
2023-03-15T10:25:12.682Z,0.90
2023-03-15T10:27:47.227Z,1.03
2023-03-15T10:30:19.021Z,0.50
2023-03-15T10:32:53.420Z,1.00
2023-03-15T10:35:22.280Z,0.60
2023-03-15T10:37:50.744Z,0.60
2023-03-15T10:40:41.040Z,0.80
2023-03-15T10:43:18.291Z,0.60
2023-03-15T10:45:51.510Z,0.50
2023-03-15T10:48:21.933Z,0.50
2023-03-15T10:50:52.531Z,0.60
2023-03-15T10:53:22.270Z,0.70
2023-03-15T10:55:51.030Z,0.87
2023-03-15T10:58:27.729Z,0.57
2023-03-15T11:01:02.073Z,0.47
2023-03-15T11:03:33.176Z,0.70
2023-03-15T11:06:02.210Z,0.80
2023-03-15T11:08:39.100Z,0.80
2023-03-15T11:11:09.095Z,0.40
2023-03-15T11:13:39.194Z,0.70
2023-03-15T11:16:19.966Z,0.63
2023-03-15T11:18:53.797Z,0.80
2023-03-15T11:21:25.407Z,0.90
2023-03-15T11:23:55.197Z,0.60
2023-03-15T11:26:33.591Z,1.07
2023-03-15T11:29:08.146Z,0.60
2023-03-15T11:31:37.671Z,0.50
2023-03-15T11:34:13.576Z,0.43
2023-03-15T11:36:49.054Z,0.60
2023-03-15T11:39:34.118Z,0.80
2023-03-15T11:42:10.520Z,0.60
2023-03-15T11:44:45.127Z,0.60
2023-03-15T11:47:21.930Z,0.50
2023-03-15T11:49:54.639Z,0.57
2023-03-15T11:52:26.429Z,0.50
2023-03-15T11:54:58.628Z,0.87
2023-03-15T11:57:45.984Z,0.60
2023-03-15T12:00:47.230Z,0.60
2023-03-15T12:03:40.658Z,0.90
2023-03-15T12:06:29.974Z,0.67
2023-03-15T12:08:58.444Z,0.47
2023-03-15T12:11:43.006Z,0.53
2023-03-15T12:14:30.086Z,0.33
2023-03-15T12:17:39.373Z,0.70
2023-03-15T12:20:14.721Z,0.70
2023-03-15T12:22:50.915Z,0.67
2023-03-15T12:25:33.938Z,0.70
2023-03-15T12:28:09.794Z,0.60
2023-03-15T12:30:42.200Z,1.00
2023-03-15T12:33:16.910Z,1.47
2023-03-15T12:35:45.789Z,0.80
2023-03-15T12:38:20.025Z,0.60
2023-03-15T12:40:54.774Z,1.00
2023-03-15T12:43:41.822Z,0.50
2023-03-15T12:46:50.250Z,0.30
2023-03-15T12:49:31.902Z,0.30
2023-03-15T12:52:04.284Z,0.60
2023-03-15T12:54:40.632Z,0.63
2023-03-15T12:57:13.088Z,0.47
2023-03-15T12:59:53.352Z,0.40
2023-03-15T13:02:42.790Z,0.83
2023-03-15T13:05:23.832Z,0.40
2023-03-15T13:07:58.270Z,0.50
2023-03-15T13:10:39.197Z,0.40
2023-03-15T13:13:34.067Z,0.60
2023-03-15T13:16:23.079Z,0.67
2023-03-15T13:19:00.578Z,0.50
2023-03-15T13:21:35.062Z,0.30
2023-03-15T13:24:05.571Z,0.60
2023-03-15T13:26:55.713Z,0.77
2023-03-15T13:29:28.923Z,0.83
2023-03-15T13:32:08.224Z,0.70
2023-03-15T13:34:37.357Z,0.70
2023-03-15T13:37:12.238Z,0.70
2023-03-15T13:39:40.779Z,0.90
2023-03-15T13:42:20.141Z,0.63
2023-03-15T13:44:48.626Z,0.70
2023-03-15T13:47:22.096Z,0.80
2023-03-15T13:49:53.845Z,0.40
2023-03-15T13:52:22.500Z,0.60
2023-03-15T13:54:54.777Z,0.50
2023-03-15T13:57:26.111Z,0.50
2023-03-15T14:00:00.728Z,0.43
2023-03-15T14:02:38.310Z,0.40
2023-03-15T14:05:09.908Z,0.50
2023-03-15T14:07:40.231Z,0.67
2023-03-15T14:10:27.650Z,0.60
2023-03-15T14:12:58.372Z,0.43
2023-03-15T14:15:28.884Z,0.50
2023-03-15T14:18:02.957Z,0.80
2023-03-15T14:20:37.089Z,0.50
2023-03-15T14:23:07.882Z,0.60
2023-03-15T14:25:37.573Z,0.70
2023-03-15T14:28:07.995Z,0.70
2023-03-15T14:30:38.487Z,0.67
2023-03-15T14:33:09.007Z,1.00
2023-03-15T14:35:46.359Z,0.67
2023-03-15T14:38:19.914Z,0.80
2023-03-15T14:40:49.015Z,0.70
2023-03-15T14:43:19.317Z,0.67
2023-03-15T14:45:49.326Z,0.60
2023-03-15T14:48:27.723Z,0.80
2023-03-15T14:50:56.676Z,0.63
2023-03-15T14:53:28.039Z,0.70
2023-03-15T14:55:56.412Z,0.60
2023-03-15T14:58:26.191Z,0.50
2023-03-15T15:00:58.104Z,0.60
2023-03-15T15:03:35.743Z,0.50
2023-03-15T15:06:04.386Z,0.50
2023-03-15T15:08:33.843Z,0.50
2023-03-15T15:11:02.841Z,0.70
2023-03-15T15:13:32.983Z,0.70
2023-03-15T15:16:01.429Z,0.50
2023-03-15T15:18:31.728Z,0.70
2023-03-15T15:21:03.102Z,0.40
2023-03-15T15:23:33.674Z,0.93
2023-03-15T15:26:04.717Z,0.97
2023-03-15T15:28:37.374Z,0.60
2023-03-15T15:31:07.571Z,0.60
2023-03-15T15:33:36.504Z,0.83
2023-03-15T15:36:05.353Z,0.60
2023-03-15T15:38:39.039Z,0.50
2023-03-15T15:41:12.979Z,0.73
2023-03-15T15:43:43.514Z,0.43
2023-03-15T15:46:13.405Z,0.60
2023-03-15T15:48:42.552Z,0.80
2023-03-15T15:51:22.570Z,0.40
2023-03-15T15:53:51.493Z,0.43
2023-03-15T15:56:19.915Z,0.60
2023-03-15T15:58:50.390Z,0.60
2023-03-15T16:01:18.887Z,0.50
2023-03-15T16:03:47.278Z,0.50
2023-03-15T16:06:19.696Z,0.50
2023-03-15T16:08:50.837Z,0.73
2023-03-15T16:11:19.943Z,0.50
2023-03-15T16:13:54.023Z,0.47
2023-03-15T16:16:22.867Z,0.57
2023-03-15T16:18:51.179Z,0.63
2023-03-15T16:21:26.166Z,0.40
2023-03-15T16:23:59.853Z,1.00
2023-03-15T16:26:29.196Z,0.50
2023-03-15T16:28:58.989Z,0.77
2023-03-15T16:31:27.404Z,0.50
2023-03-15T16:33:56.474Z,0.50
2023-03-15T16:36:25.468Z,0.53
2023-03-15T16:38:53.743Z,0.70
2023-03-15T16:41:22.158Z,0.47
2023-03-15T16:43:50.539Z,0.80
2023-03-15T16:46:20.506Z,0.50
2023-03-15T16:48:49.057Z,0.90
2023-03-15T16:51:18.112Z,0.60
2023-03-15T16:53:46.688Z,0.60
2023-03-15T16:56:16.631Z,0.63
2023-03-15T16:58:46.118Z,0.60
2023-03-15T17:01:14.641Z,0.30
2023-03-15T17:03:44.449Z,0.50
2023-03-15T17:06:20.260Z,0.50
2023-03-15T17:08:49.157Z,0.47
2023-03-15T17:11:18.583Z,0.53
2023-03-15T17:13:47.457Z,0.50
2023-03-15T17:16:16.779Z,0.30
2023-03-15T17:18:47.859Z,0.40
2023-03-15T17:21:19.756Z,0.60
2023-03-15T17:23:49.772Z,0.50
2023-03-15T17:26:20.628Z,0.73
2023-03-15T17:28:49.851Z,0.80
2023-03-15T17:31:24.970Z,0.43
2023-03-15T17:33:55.502Z,0.80
2023-03-15T17:36:26.088Z,1.10
2023-03-15T17:38:55.696Z,0.70
2023-03-15T17:41:28.672Z,2.83
2023-03-15T17:43:57.514Z,2.17
2023-03-15T17:46:30.530Z,1.30
2023-03-15T17:49:01.201Z,0.70
2023-03-15T17:51:31.517Z,0.83
2023-03-15T17:54:00.820Z,1.10
2023-03-15T17:56:30.432Z,1.80
2023-03-15T17:58:58.846Z,2.43
2023-03-15T18:01:29.200Z,3.27
2023-03-15T18:03:59.430Z,3.70
2023-03-15T18:06:27.936Z,3.30
2023-03-15T18:08:56.417Z,3.07
2023-03-15T18:11:27.491Z,2.27
2023-03-15T18:13:56.931Z,1.30
2023-03-15T18:16:25.593Z,0.50
2023-03-15T18:18:54.113Z,0.40
2023-03-15T18:21:26.817Z,0.50
2023-03-15T18:23:56.517Z,0.30
2023-03-15T18:26:25.127Z,0.57
2023-03-15T18:28:53.633Z,0.50
2023-03-15T18:31:24.293Z,0.50
2023-03-15T18:33:53.985Z,0.40
2023-03-15T18:36:24.397Z,0.40
2023-03-15T18:38:53.049Z,0.20
2023-03-15T18:41:24.781Z,0.63
2023-03-15T18:43:53.574Z,0.50
2023-03-15T18:46:24.474Z,0.47
2023-03-15T18:48:54.616Z,0.47
2023-03-15T18:51:28.296Z,0.40
2023-03-15T18:53:57.452Z,0.40
2023-03-15T18:56:27.129Z,0.30
2023-03-15T18:58:56.743Z,0.33
2023-03-15T19:01:25.593Z,0.43
2023-03-15T19:03:55.194Z,0.33
2023-03-15T19:06:26.820Z,0.40
2023-03-15T19:08:55.381Z,0.40
2023-03-15T19:11:24.568Z,0.40
2023-03-15T19:13:53.111Z,0.30
2023-03-15T19:16:22.905Z,0.60
2023-03-15T19:18:52.132Z,0.30
2023-03-15T19:21:21.025Z,0.57
2023-03-15T19:23:51.231Z,0.40
2023-03-15T19:26:19.584Z,0.63
2023-03-15T19:28:47.985Z,0.30
2023-03-15T19:31:16.424Z,0.47
2023-03-15T19:33:44.895Z,0.50
2023-03-15T19:36:13.319Z,0.40
2023-03-15T19:38:41.831Z,1.37
2023-03-15T19:41:13.115Z,1.73
2023-03-15T19:43:43.624Z,3.00
2023-03-15T19:46:14.132Z,1.70
2023-03-15T19:48:43.118Z,1.77
2023-03-15T19:51:11.532Z,2.73
2023-03-15T19:53:40.008Z,1.97
2023-03-15T19:56:09.773Z,1.60
2023-03-15T19:58:39.743Z,0.87
2023-03-15T20:01:08.113Z,0.67
2023-03-15T20:03:36.479Z,0.40
2023-03-15T20:06:06.963Z,0.60
2023-03-15T20:08:35.494Z,0.60
2023-03-15T20:11:05.317Z,0.50
2023-03-15T20:13:33.982Z,0.63
2023-03-15T20:16:04.259Z,0.70
2023-03-15T20:18:33.427Z,0.57
2023-03-15T20:21:01.844Z,0.40
2023-03-15T20:23:30.391Z,0.40
2023-03-15T20:26:06.201Z,0.30
2023-03-15T20:28:34.662Z,0.43
2023-03-15T20:31:08.855Z,0.50
2023-03-15T20:33:37.573Z,0.90
2023-03-15T20:36:06.599Z,0.60
2023-03-15T20:38:37.309Z,0.73
2023-03-15T20:41:06.382Z,0.50
2023-03-15T20:43:35.200Z,0.60
2023-03-15T20:46:04.530Z,0.60
2023-03-15T20:48:36.144Z,0.50
2023-03-15T20:51:06.162Z,0.40
2023-03-15T20:53:36.401Z,0.40
2023-03-15T20:56:06.589Z,0.40
2023-03-15T20:58:35.102Z,0.40
2023-03-15T21:01:05.068Z,0.43
2023-03-15T21:03:35.507Z,0.47
2023-03-15T21:06:05.065Z,0.50
2023-03-15T21:08:34.731Z,0.40
2023-03-15T21:11:03.157Z,0.50
2023-03-15T21:13:31.648Z,0.63
2023-03-15T21:16:00.533Z,0.50
2023-03-15T21:18:29.048Z,0.50
2023-03-15T21:21:00.264Z,0.70
2023-03-15T21:23:31.228Z,0.60
2023-03-15T21:26:00.415Z,0.80
2023-03-15T21:28:28.992Z,0.50
2023-03-15T21:30:58.326Z,0.53
2023-03-15T21:33:28.644Z,0.63
2023-03-15T21:35:59.447Z,0.50
2023-03-15T21:38:29.111Z,0.30
2023-03-15T21:40:59.549Z,0.40
2023-03-15T21:43:29.892Z,0.30
2023-03-15T21:46:01.421Z,0.50
2023-03-15T21:48:30.692Z,0.43
2023-03-15T21:51:02.030Z,0.43
2023-03-15T21:53:31.483Z,0.60
2023-03-15T21:56:00.414Z,0.50
2023-03-15T21:58:29.507Z,0.90
2023-03-15T22:00:59.959Z,0.60
2023-03-15T22:03:29.496Z,0.53
2023-03-15T22:05:58.223Z,0.40
2023-03-15T22:08:28.202Z,0.60
2023-03-15T22:10:57.998Z,0.97
2023-03-15T22:13:26.968Z,0.50
2023-03-15T22:15:55.422Z,0.73
2023-03-15T22:18:24.352Z,0.90
2023-03-15T22:20:53.146Z,0.90
2023-03-15T22:23:21.879Z,0.80
2023-03-15T22:25:53.683Z,0.97
2023-03-15T22:28:22.592Z,1.27
2023-03-15T22:30:51.797Z,0.70
2023-03-15T22:33:21.620Z,1.87
2023-03-15T22:35:55.917Z,1.10
2023-03-15T22:38:25.161Z,1.23
2023-03-15T22:41:01.846Z,1.10
2023-03-15T22:43:30.428Z,1.30
2023-03-15T22:45:58.865Z,0.87
2023-03-15T22:48:27.316Z,0.70
2023-03-15T22:51:00.360Z,0.70
2023-03-15T22:53:29.684Z,0.70
2023-03-15T22:55:59.907Z,0.60
2023-03-15T22:58:28.581Z,0.40
2023-03-15T23:00:56.959Z,0.63
2023-03-15T23:03:26.414Z,0.60
2023-03-15T23:05:55.253Z,0.80
2023-03-15T23:08:24.340Z,0.90
2023-03-15T23:10:53.089Z,1.00
2023-03-15T23:13:22.953Z,0.90
2023-03-15T23:15:51.568Z,0.80
2023-03-15T23:18:20.178Z,1.10
2023-03-15T23:20:48.655Z,0.90
2023-03-15T23:23:17.233Z,0.60
2023-03-15T23:25:46.029Z,0.70
2023-03-15T23:28:17.439Z,0.93
2023-03-15T23:30:47.173Z,0.80
2023-03-15T23:33:15.537Z,1.00
2023-03-15T23:35:43.962Z,1.00
2023-03-15T23:38:13.728Z,1.50
2023-03-15T23:40:42.171Z,1.50
2023-03-15T23:43:10.719Z,1.10
2023-03-15T23:45:39.982Z,1.10
2023-03-15T23:48:09.907Z,0.80
2023-03-15T23:50:39.395Z,0.83
2023-03-15T23:53:07.853Z,0.90
2023-03-15T23:55:36.295Z,0.77
2023-03-15T23:58:06.874Z,0.90
